Time;durP1;ratioP1;P1;durP2;ratioP2;P2;SDS_P1;SDS_P2;PMS_P1;PMS_P2;Temp;Humidity;BMP_temperature;BMP_pressure;BME280_temperature;BME280_humidity;BME280_pressure;Samples;Min_cycle;Max_cycle;Signal;HPM_P1;HPM_P2
2023/10/07 00:00:52;;;;;;;12.90;5.40;;;15.20;99.90;;;;;;5017583;28;20582;-83
2023/10/07 00:03:21;;;;;;;12.23;5.57;;;15.20;99.90;;;;;;5008172;28;20835;-82
2023/10/07 00:05:50;;;;;;;12.43;5.50;;;15.20;99.90;;;;;;5000131;28;20232;-82
2023/10/07 00:08:19;;;;;;;12.57;5.97;;;15.20;99.90;;;;;;5002754;28;20251;-83
2023/10/07 00:10:49;;;;;;;12.13;5.40;;;15.20;99.90;;;;;;5017078;28;20324;-83
2023/10/07 00:13:19;;;;;;;11.80;5.10;;;15.20;99.90;;;;;;5000433;28;20382;-83
2023/10/07 00:15:51;;;;;;;9.50;5.23;;;15.30;99.90;;;;;;5018136;28;20234;-82
2023/10/07 00:18:19;;;;;;;11.53;5.07;;;15.30;99.90;;;;;;5004252;28;20222;-82
2023/10/07 00:20:52;;;;;;;15.57;5.67;;;15.30;99.90;;;;;;5004330;28;20226;-82
2023/10/07 00:23:20;;;;;;;15.23;5.53;;;15.30;99.90;;;;;;5019680;28;20273;-82
2023/10/07 00:25:49;;;;;;;9.73;4.93;;;15.30;99.90;;;;;;5002843;28;20335;-83
2023/10/07 00:28:27;;;;;;;10.60;5.27;;;15.30;99.90;;;;;;5015780;28;20832;-82
2023/10/07 00:31:01;;;;;;;10.50;4.97;;;15.30;99.90;;;;;;5005706;28;20898;-82
2023/10/07 00:33:30;;;;;;;10.30;5.67;;;15.30;99.90;;;;;;5006144;28;20222;-82
2023/10/07 00:36:02;;;;;;;10.13;5.47;;;15.30;99.90;;;;;;5021660;28;20279;-82
2023/10/07 00:38:37;;;;;;;12.30;5.23;;;15.30;99.90;;;;;;5005437;28;20258;-82
2023/10/07 00:41:05;;;;;;;9.47;5.50;;;15.30;99.90;;;;;;5021511;28;20702;-82
2023/10/07 00:43:36;;;;;;;10.60;5.40;;;15.30;99.90;;;;;;5006210;28;20344;-82
2023/10/07 00:46:10;;;;;;;11.60;5.57;;;15.30;99.90;;;;;;5005068;28;20229;-82
2023/10/07 00:48:46;;;;;;;10.37;5.07;;;15.30;99.90;;;;;;5003129;28;20249;-82
2023/10/07 00:51:16;;;;;;;12.43;5.70;;;15.30;99.90;;;;;;5008511;28;20222;-82
2023/10/07 00:53:46;;;;;;;11.67;6.00;;;15.40;99.90;;;;;;5006150;28;20242;-81
2023/10/07 00:56:15;;;;;;;9.70;5.23;;;15.40;99.90;;;;;;5007659;28;20231;-81
2023/10/07 00:58:45;;;;;;;14.80;6.13;;;15.40;99.90;;;;;;5009093;28;20226;-82
2023/10/07 01:01:14;;;;;;;9.73;5.50;;;15.40;99.90;;;;;;5021798;28;20227;-82
2023/10/07 01:03:55;;;;;;;10.37;5.60;;;15.40;99.90;;;;;;5013770;28;20231;-82
2023/10/07 01:06:31;;;;;;;11.20;5.90;;;15.40;99.90;;;;;;5012855;28;20736;-82
2023/10/07 01:09:07;;;;;;;13.70;5.80;;;15.40;99.90;;;;;;5017246;28;20727;-81
2023/10/07 01:11:39;;;;;;;9.83;5.73;;;15.40;99.90;;;;;;5017445;28;20234;-81
2023/10/07 01:14:06;;;;;;;8.77;5.10;;;15.40;99.90;;;;;;5013299;28;20228;-82
2023/10/07 01:16:41;;;;;;;13.83;5.73;;;15.40;99.90;;;;;;5015664;28;20285;-82
2023/10/07 01:19:27;;;;;;;7.97;5.33;;;15.40;99.90;;;;;;5016179;28;20317;-82
2023/10/07 01:22:05;;;;;;;11.77;5.97;;;15.40;99.90;;;;;;5028157;28;20287;-83
2023/10/07 01:24:46;;;;;;;12.07;6.03;;;15.40;99.90;;;;;;5030510;28;20230;-83
2023/10/07 01:27:34;;;;;;;10.40;5.63;;;15.40;99.90;;;;;;5023710;28;20282;-82
2023/10/07 01:30:07;;;;;;;10.90;5.77;;;15.40;99.90;;;;;;5028900;28;20224;-83
2023/10/07 01:32:34;;;;;;;9.73;5.00;;;15.40;99.90;;;;;;5013402;28;20229;-83
2023/10/07 01:35:05;;;;;;;9.13;5.23;;;15.30;99.90;;;;;;5013935;28;20811;-82
2023/10/07 01:37:41;;;;;;;10.90;4.53;;;15.40;99.90;;;;;;5012277;28;20271;-83
2023/10/07 01:40:13;;;;;;;7.77;4.63;;;15.40;99.90;;;;;;5009934;28;20243;-82
2023/10/07 01:42:42;;;;;;;9.63;5.37;;;15.40;99.90;;;;;;5009229;28;20280;-82
2023/10/07 01:45:20;;;;;;;4.93;4.20;;;15.40;99.90;;;;;;5011543;28;20253;-82
2023/10/07 01:47:48;;;;;;;8.17;4.37;;;15.40;99.90;;;;;;5013606;28;20235;-81
2023/10/07 01:50:18;;;;;;;5.67;4.20;;;15.30;99.90;;;;;;5012486;28;20286;-82
2023/10/07 01:52:48;;;;;;;8.47;4.37;;;15.40;99.90;;;;;;5009592;28;20232;-82
2023/10/07 01:55:17;;;;;;;7.03;3.90;;;15.40;99.90;;;;;;5011785;28;20284;-81
2023/10/07 01:57:45;;;;;;;6.07;4.23;;;15.40;99.90;;;;;;5013309;28;20227;-82
2023/10/07 02:00:13;;;;;;;4.50;3.77;;;15.30;99.90;;;;;;5005524;28;20251;-83
2023/10/07 02:02:49;;;;;;;4.90;4.20;;;15.40;99.90;;;;;;5028783;28;20293;-82
2023/10/07 02:05:24;;;;;;;6.00;3.83;;;15.40;99.90;;;;;;5031424;28;20870;-83
2023/10/07 02:07:53;;;;;;;4.20;3.53;;;15.30;99.90;;;;;;5013026;28;20241;-83
2023/10/07 02:10:26;;;;;;;5.00;3.90;;;15.40;99.90;;;;;;5027386;28;20276;-82
2023/10/07 02:12:54;;;;;;;4.17;3.77;;;15.40;99.90;;;;;;5011095;28;20602;-80
2023/10/07 02:15:21;;;;;;;5.67;3.97;;;15.40;99.90;;;;;;5010476;28;20269;-81
2023/10/07 02:17:48;;;;;;;5.90;4.10;;;15.40;99.90;;;;;;5011918;28;20706;-80
2023/10/07 02:20:38;;;;;;;5.47;4.07;;;15.40;99.90;;;;;;5006677;28;20231;-80
2023/10/07 02:23:12;;;;;;;4.50;3.53;;;15.40;99.90;;;;;;5005581;28;20639;-80
2023/10/07 02:25:42;;;;;;;4.73;4.10;;;15.40;99.90;;;;;;5008166;28;20227;-80
2023/10/07 02:28:09;;;;;;;4.57;3.63;;;15.40;99.90;;;;;;5021876;28;20228;-79
2023/10/07 02:30:39;;;;;;;6.77;4.27;;;15.40;99.90;;;;;;5006903;28;20222;-80
2023/10/07 02:33:08;;;;;;;5.13;4.07;;;15.40;99.90;;;;;;5001751;28;20298;-79
2023/10/07 02:35:37;;;;;;;5.20;4.30;;;15.30;99.90;;;;;;5007047;28;20236;-79
2023/10/07 02:38:04;;;;;;;5.23;4.47;;;15.40;99.90;;;;;;5007132;28;20227;-79
2023/10/07 02:40:36;;;;;;;6.87;4.43;;;15.40;99.90;;;;;;5008158;28;20309;-78
2023/10/07 02:43:07;;;;;;;8.20;4.40;;;15.40;99.90;;;;;;5003584;28;20269;-78
2023/10/07 02:45:42;;;;;;;7.50;4.23;;;15.40;99.90;;;;;;5006755;28;20755;-79
2023/10/07 02:48:10;;;;;;;5.67;4.10;;;15.40;99.90;;;;;;5002366;28;20216;-79
2023/10/07 02:50:40;;;;;;;6.23;3.97;;;15.40;99.90;;;;;;5005679;28;20321;-79
2023/10/07 02:53:12;;;;;;;5.63;3.90;;;15.40;99.90;;;;;;5005652;28;20724;-79
2023/10/07 02:55:47;;;;;;;4.60;3.67;;;15.40;99.90;;;;;;5002032;28;20218;-78
2023/10/07 02:58:27;;;;;;;5.40;3.40;;;15.40;99.90;;;;;;4997772;28;20800;-78
2023/10/07 03:00:58;;;;;;;4.27;2.60;;;15.40;99.90;;;;;;5002344;28;20224;-78
2023/10/07 03:03:38;;;;;;;2.23;1.60;;;15.40;99.90;;;;;;5005487;28;20222;-78
2023/10/07 03:06:08;;;;;;;1.93;1.33;;;15.40;99.90;;;;;;5016750;28;20306;-78
2023/10/07 03:08:49;;;;;;;2.77;0.70;;;15.40;99.90;;;;;;5003637;28;20264;-78
2023/10/07 03:11:21;;;;;;;2.00;0.80;;;15.30;99.90;;;;;;5002865;28;20291;-78
2023/10/07 03:13:56;;;;;;;1.53;0.60;;;15.30;99.90;;;;;;5005065;28;20905;-79
2023/10/07 03:16:42;;;;;;;1.63;0.53;;;15.30;99.90;;;;;;5006472;28;20321;-79
2023/10/07 03:19:20;;;;;;;2.83;0.67;;;15.20;99.90;;;;;;5008430;28;20801;-79
2023/10/07 03:22:06;;;;;;;2.07;0.60;;;15.20;99.90;;;;;;5008337;28;20293;-79
2023/10/07 03:24:54;;;;;;;1.40;0.57;;;15.20;99.90;;;;;;5009644;28;20232;-79
2023/10/07 03:27:26;;;;;;;1.43;0.60;;;15.20;99.90;;;;;;5027205;28;20698;-79
2023/10/07 03:30:12;;;;;;;2.57;0.80;;;15.10;99.90;;;;;;5009595;28;20707;-79
2023/10/07 03:35:59;;;;;;;2.60;1.17;;;15.00;99.90;;;;;;5116955;27;20567;-80
2023/10/07 03:38:26;;;;;;;3.47;0.90;;;15.00;99.90;;;;;;5132916;27;20318;-80
2023/10/07 03:40:54;;;;;;;3.33;0.90;;;14.90;99.90;;;;;;5111013;28;20222;-80
2023/10/07 03:43:22;;;;;;;2.43;0.80;;;14.90;99.90;;;;;;5124718;28;20229;-81
2023/10/07 03:45:48;;;;;;;2.87;0.83;;;14.80;99.90;;;;;;5098930;28;20290;-81
2023/10/07 03:48:23;;;;;;;2.60;0.60;;;14.80;99.90;;;;;;5108369;28;20256;-81
2023/10/07 03:51:04;;;;;;;2.23;0.70;;;14.80;99.90;;;;;;5110815;28;20260;-81
2023/10/07 03:53:32;;;;;;;2.67;0.77;;;14.80;99.90;;;;;;5113219;28;20238;-81
2023/10/07 03:56:06;;;;;;;1.90;0.60;;;14.70;99.90;;;;;;5114654;27;20229;-80
2023/10/07 03:58:36;;;;;;;1.57;0.60;;;14.70;99.90;;;;;;5111804;27;20229;-82
2023/10/07 04:01:11;;;;;;;2.50;0.53;;;14.70;99.90;;;;;;5107741;27;20243;-81
2023/10/07 04:03:39;;;;;;;2.30;0.87;;;14.70;99.90;;;;;;5106897;28;20219;-78
2023/10/07 04:06:09;;;;;;;1.73;0.50;;;14.60;99.90;;;;;;5103077;28;20229;-79
2023/10/07 04:08:39;;;;;;;1.50;0.70;;;14.60;99.90;;;;;;5109588;28;20230;-80
2023/10/07 04:11:15;;;;;;;1.10;0.50;;;14.60;99.90;;;;;;5109088;28;20220;-79
2023/10/07 04:13:43;;;;;;;2.60;0.60;;;14.60;99.90;;;;;;5104558;27;20767;-79
2023/10/07 04:16:22;;;;;;;1.50;0.60;;;14.60;99.90;;;;;;5109576;27;20236;-79
2023/10/07 04:18:49;;;;;;;3.20;0.90;;;14.60;99.90;;;;;;5100264;28;20641;-79
2023/10/07 04:21:17;;;;;;;2.10;0.70;;;14.60;99.90;;;;;;5102310;28;20672;-79
2023/10/07 04:23:45;;;;;;;1.63;0.67;;;14.60;99.90;;;;;;5102531;28;20694;-79
2023/10/07 04:26:19;;;;;;;2.93;0.80;;;14.60;99.90;;;;;;5101446;28;20209;-79
2023/10/07 04:28:48;;;;;;;4.67;1.90;;;14.50;99.90;;;;;;5104744;28;20232;-78
2023/10/07 04:31:15;;;;;;;3.67;1.43;;;14.50;99.90;;;;;;5103203;27;20823;-79
2023/10/07 04:33:47;;;;;;;3.43;1.33;;;14.50;99.90;;;;;;5105593;28;20232;-80
2023/10/07 04:36:17;;;;;;;5.20;1.50;;;14.50;99.90;;;;;;5106507;28;20302;-83
2023/10/07 04:38:53;;;;;;;7.33;1.93;;;14.40;99.90;;;;;;5107841;28;20631;-84
2023/10/07 04:41:36;;;;;;;8.40;2.00;;;14.50;99.90;;;;;;5104040;28;20239;-82
2023/10/07 04:44:23;;;;;;;7.67;2.07;;;14.40;99.90;;;;;;5108152;28;20305;-82
2023/10/07 04:46:56;;;;;;;7.87;2.10;;;14.40;99.90;;;;;;5091596;28;20228;-83
2023/10/07 04:49:38;;;;;;;8.13;1.77;;;14.30;99.90;;;;;;5088460;28;20233;-81
2023/10/07 04:52:08;;;;;;;9.17;1.83;;;14.30;99.90;;;;;;5094690;28;20225;-81
2023/10/07 04:54:36;;;;;;;12.47;2.17;;;14.20;99.90;;;;;;5085261;28;20232;-80
2023/10/07 04:57:10;;;;;;;7.90;2.00;;;14.20;99.90;;;;;;5094317;28;20908;-81
2023/10/07 04:59:45;;;;;;;4.23;1.60;;;14.10;99.90;;;;;;5087497;28;20308;-81
2023/10/07 05:02:12;;;;;;;8.73;1.80;;;14.10;99.90;;;;;;5087863;28;20223;-80
2023/10/07 05:04:41;;;;;;;7.37;2.30;;;14.10;99.90;;;;;;5088157;28;20222;-80
2023/10/07 05:07:10;;;;;;;6.30;1.73;;;14.10;99.90;;;;;;5086655;28;20287;-80
2023/10/07 05:09:38;;;;;;;6.03;1.60;;;14.10;99.90;;;;;;5086900;28;20546;-79
2023/10/07 05:12:06;;;;;;;7.00;1.97;;;14.10;99.90;;;;;;5092129;28;20230;-80
2023/10/07 05:14:35;;;;;;;7.37;1.60;;;14.10;99.90;;;;;;5096267;28;20232;-81
2023/10/07 05:17:02;;;;;;;9.90;1.73;;;14.10;99.90;;;;;;5093124;28;20255;-79
2023/10/07 05:19:30;;;;;;;6.43;1.57;;;14.10;99.90;;;;;;5095770;28;20251;-81
2023/10/07 05:22:00;;;;;;;7.27;1.70;;;14.10;99.90;;;;;;5095985;28;20300;-81
2023/10/07 05:24:32;;;;;;;7.40;1.50;;;14.10;99.90;;;;;;5091828;28;20252;-84
2023/10/07 05:27:01;;;;;;;4.50;1.40;;;14.10;99.90;;;;;;5089709;28;20301;-83
2023/10/07 05:29:28;;;;;;;5.27;1.43;;;14.10;99.90;;;;;;5088955;28;20225;-83
2023/10/07 05:31:57;;;;;;;8.97;1.77;;;14.10;99.90;;;;;;5092825;28;20216;-83
2023/10/07 05:34:28;;;;;;;7.43;1.80;;;14.10;99.90;;;;;;5089869;28;20244;-83
2023/10/07 05:36:59;;;;;;;9.47;1.97;;;14.10;99.90;;;;;;5105602;28;20237;-83
2023/10/07 05:39:26;;;;;;;5.17;1.50;;;14.10;99.90;;;;;;5107804;28;20252;-83
2023/10/07 05:41:54;;;;;;;6.07;1.70;;;14.10;99.90;;;;;;5089916;28;20599;-82
2023/10/07 05:44:21;;;;;;;7.07;2.20;;;14.10;99.90;;;;;;5090340;28;20247;-83
2023/10/07 05:46:48;;;;;;;6.53;1.73;;;14.10;99.90;;;;;;5089854;28;20222;-82
2023/10/07 05:49:15;;;;;;;7.47;1.73;;;14.10;99.90;;;;;;5087833;28;20233;-82
2023/10/07 05:51:44;;;;;;;6.67;1.60;;;14.10;99.90;;;;;;5085339;28;20288;-82
2023/10/07 05:54:11;;;;;;;4.93;1.40;;;14.10;99.90;;;;;;5090478;28;20225;-82
2023/10/07 05:56:41;;;;;;;10.67;2.17;;;14.10;99.90;;;;;;5090998;28;20254;-83
2023/10/07 05:59:11;;;;;;;7.83;2.13;;;14.10;99.90;;;;;;5094318;28;20243;-82
2023/10/07 06:01:41;;;;;;;7.73;2.03;;;14.10;99.90;;;;;;5087530;28;20213;-82
2023/10/07 06:04:07;;;;;;;11.77;1.90;;;14.10;99.90;;;;;;5089976;28;20224;-82
2023/10/07 06:06:36;;;;;;;6.57;1.53;;;14.10;99.90;;;;;;5093313;28;20739;-83
2023/10/07 06:09:03;;;;;;;9.07;1.90;;;14.10;99.90;;;;;;5090459;28;20220;-84
2023/10/07 06:11:34;;;;;;;7.43;1.87;;;14.10;99.90;;;;;;5096158;28;20237;-83
2023/10/07 06:14:04;;;;;;;9.27;1.90;;;14.10;99.90;;;;;;5108686;28;20229;-83
2023/10/07 06:16:32;;;;;;;7.53;2.20;;;14.10;99.90;;;;;;5092270;28;20226;-84
2023/10/07 06:18:59;;;;;;;10.70;2.30;;;14.10;99.90;;;;;;5092680;28;20239;-84
2023/10/07 06:21:28;;;;;;;6.57;2.23;;;14.10;99.90;;;;;;5091787;28;20259;-85
2023/10/07 06:23:58;;;;;;;6.63;1.50;;;14.20;99.90;;;;;;5083290;28;20212;-84
2023/10/07 06:26:25;;;;;;;6.37;1.53;;;14.10;99.90;;;;;;5084512;28;20248;-84
2023/10/07 06:28:52;;;;;;;8.33;1.70;;;14.10;99.90;;;;;;5105592;27;20608;-84
2023/10/07 06:31:28;;;;;;;8.90;1.57;;;14.20;99.90;;;;;;5081829;28;20724;-83
2023/10/07 06:34:03;;;;;;;6.93;1.97;;;14.10;99.90;;;;;;5103201;28;20217;-83
2023/10/07 06:36:31;;;;;;;7.93;1.70;;;14.10;99.90;;;;;;5083713;28;20228;-86
2023/10/07 06:38:59;;;;;;;8.77;2.13;;;14.20;99.90;;;;;;5105101;28;20236;-84
2023/10/07 06:41:28;;;;;;;6.27;1.70;;;14.10;99.90;;;;;;5082897;28;20719;-83
2023/10/07 06:43:59;;;;;;;6.33;1.80;;;14.20;99.90;;;;;;5090358;28;20254;-81
2023/10/07 06:46:29;;;;;;;8.00;1.70;;;14.20;99.90;;;;;;5089986;28;20235;-83
2023/10/07 06:48:59;;;;;;;4.07;1.47;;;14.20;99.90;;;;;;5088569;28;20258;-84
2023/10/07 06:51:31;;;;;;;8.53;2.10;;;14.20;99.90;;;;;;5087405;28;20232;-82
2023/10/07 06:54:03;;;;;;;9.00;1.83;;;14.20;99.90;;;;;;5087150;28;20230;-83
2023/10/07 06:56:31;;;;;;;7.50;2.13;;;14.20;99.90;;;;;;5093466;28;20260;-83
2023/10/07 06:58:59;;;;;;;8.70;1.93;;;14.20;99.90;;;;;;5085951;28;20224;-83
2023/10/07 07:01:49;;;;;;;6.57;1.80;;;14.20;99.90;;;;;;5089215;28;20331;-82
2023/10/07 07:04:19;;;;;;;8.67;1.87;;;14.20;99.90;;;;;;5089643;28;20296;-84
2023/10/07 07:06:58;;;;;;;12.53;2.20;;;14.20;99.90;;;;;;5085369;28;20229;-84
2023/10/07 07:09:43;;;;;;;7.73;1.80;;;14.20;99.90;;;;;;5085999;28;20277;-84
2023/10/07 07:12:12;;;;;;;7.00;1.77;;;14.20;99.90;;;;;;5085787;28;20305;-83
2023/10/07 07:14:42;;;;;;;9.63;1.90;;;14.20;99.90;;;;;;5103877;28;20277;-83
2023/10/07 07:20:29;;;;;;;8.83;2.27;;;14.10;99.90;;;;;;5085612;28;20223;-83
2023/10/07 07:22:42;;;;;;;8.60;2.50;;;14.10;99.90;;;;;;5088072;28;20229;-83
2023/10/07 07:25:18;;;;;;;11.13;2.00;;;14.10;99.90;;;;;;5086013;28;20611;-83
2023/10/07 07:27:48;;;;;;;6.30;1.80;;;14.20;99.90;;;;;;5083217;28;20964;-83
2023/10/07 07:30:19;;;;;;;9.23;2.23;;;14.20;99.90;;;;;;5080307;28;20681;-84
2023/10/07 07:32:47;;;;;;;8.40;2.47;;;14.20;99.90;;;;;;5099027;28;20232;-83
2023/10/07 07:35:22;;;;;;;5.97;1.60;;;14.20;99.90;;;;;;5087980;28;20221;-84
2023/10/07 07:37:49;;;;;;;7.23;1.77;;;14.20;99.90;;;;;;5101491;28;20224;-83
2023/10/07 07:40:35;;;;;;;5.17;1.50;;;14.20;99.90;;;;;;5087007;28;20232;-83
2023/10/07 07:43:07;;;;;;;5.87;1.73;;;14.20;99.90;;;;;;5085892;28;20242;-83
2023/10/07 07:45:35;;;;;;;4.57;1.50;;;14.20;99.90;;;;;;5084242;28;20229;-84
2023/10/07 07:48:05;;;;;;;4.83;1.47;;;14.20;99.90;;;;;;5086727;28;20221;-83
2023/10/07 07:50:35;;;;;;;4.13;1.47;;;14.20;99.90;;;;;;5088850;28;20232;-83
2023/10/07 07:53:06;;;;;;;6.13;1.77;;;14.20;99.90;;;;;;5079154;28;20225;-83
2023/10/07 07:55:34;;;;;;;5.67;1.47;;;14.20;99.90;;;;;;5078819;28;20234;-83
2023/10/07 07:58:04;;;;;;;3.53;1.37;;;14.20;99.90;;;;;;5078169;28;20309;-80
2023/10/07 08:00:40;;;;;;;3.50;1.70;;;14.20;99.90;;;;;;5080942;28;20281;-83
2023/10/07 08:03:10;;;;;;;3.37;1.27;;;14.20;99.90;;;;;;5082401;28;20244;-82
2023/10/07 08:05:41;;;;;;;5.93;1.20;;;14.20;99.90;;;;;;5085571;28;20223;-81
2023/10/07 08:08:18;;;;;;;4.67;1.10;;;14.20;99.90;;;;;;5079501;28;20312;-81
2023/10/07 08:10:47;;;;;;;2.70;1.10;;;14.30;99.90;;;;;;5078714;28;20268;-81
2023/10/07 08:13:23;;;;;;;2.93;1.07;;;14.30;99.90;;;;;;5083722;28;20224;-81
2023/10/07 08:15:53;;;;;;;2.20;0.90;;;14.30;99.90;;;;;;5084510;28;20251;-82
2023/10/07 08:18:22;;;;;;;3.60;1.00;;;14.30;99.90;;;;;;5084544;28;20681;-80
2023/10/07 08:20:56;;;;;;;4.40;1.30;;;14.30;99.90;;;;;;5082939;28;20224;-80
2023/10/07 08:23:28;;;;;;;3.03;1.27;;;14.30;99.90;;;;;;5088760;28;20228;-80
2023/10/07 08:26:08;;;;;;;3.27;1.07;;;14.30;99.90;;;;;;5088906;28;20221;-80
2023/10/07 08:28:46;;;;;;;4.70;0.90;;;14.40;99.90;;;;;;5083666;28;20332;-80
2023/10/07 08:31:17;;;;;;;1.60;0.90;;;14.40;99.90;;;;;;5080991;28;20222;-80
2023/10/07 08:33:53;;;;;;;1.00;0.80;;;14.40;99.90;;;;;;5083573;28;20347;-81
2023/10/07 08:36:28;;;;;;;2.53;0.93;;;14.40;99.90;;;;;;5083236;28;20224;-80
2023/10/07 08:38:58;;;;;;;1.37;0.70;;;14.40;99.90;;;;;;5079912;28;20265;-80
2023/10/07 08:41:28;;;;;;;3.20;0.90;;;14.40;99.90;;;;;;5083035;28;20226;-80
2023/10/07 08:44:06;;;;;;;0.87;0.40;;;14.50;99.90;;;;;;5082907;28;20233;-80
2023/10/07 08:49:25;;;;;;;4.00;1.00;;;14.50;99.90;;;;;;5083619;28;20225;-80
2023/10/07 08:52:18;;;;;;;2.83;0.63;;;14.50;99.90;;;;;;5077990;27;20214;-81
2023/10/07 08:54:51;;;;;;;2.67;0.93;;;14.60;99.90;;;;;;5087489;28;20257;-81
2023/10/07 08:57:22;;;;;;;1.30;0.70;;;14.60;99.90;;;;;;5083351;28;20230;-80
2023/10/07 08:59:52;;;;;;;1.20;0.83;;;14.60;99.90;;;;;;5087381;28;20226;-82
2023/10/07 09:02:27;;;;;;;1.73;0.60;;;14.60;99.90;;;;;;5080735;28;20406;-83
2023/10/07 09:04:57;;;;;;;1.47;0.60;;;14.60;99.90;;;;;;5083508;28;20293;-84
2023/10/07 09:07:31;;;;;;;0.87;0.70;;;14.60;99.90;;;;;;5070924;28;20737;-82
2023/10/07 09:10:10;;;;;;;2.50;0.80;;;14.50;99.90;;;;;;5092613;28;20281;-83
2023/10/07 09:12:45;;;;;;;1.63;0.77;;;14.50;99.90;;;;;;5084888;28;20226;-84
2023/10/07 09:15:19;;;;;;;1.23;0.80;;;14.50;99.90;;;;;;5099451;28;20221;-81
2023/10/07 09:17:46;;;;;;;3.77;1.00;;;14.50;99.90;;;;;;5086652;28;20267;-82
2023/10/07 09:20:17;;;;;;;2.37;0.93;;;14.50;99.90;;;;;;5083910;28;20716;-83
2023/10/07 09:22:53;;;;;;;3.83;0.80;;;14.40;99.90;;;;;;5086010;28;20428;-81
2023/10/07 09:25:31;;;;;;;2.80;0.90;;;14.40;99.90;;;;;;5081306;28;20302;-82
2023/10/07 09:27:59;;;;;;;2.50;0.83;;;14.40;99.90;;;;;;5087844;28;20259;-82
2023/10/07 09:30:38;;;;;;;3.63;0.80;;;14.40;99.90;;;;;;5086208;28;20599;-84
2023/10/07 09:33:12;;;;;;;2.13;0.80;;;14.40;99.90;;;;;;5086204;28;20308;-81
2023/10/07 09:35:42;;;;;;;2.50;0.90;;;14.30;99.90;;;;;;5083177;28;20359;-82
2023/10/07 09:38:22;;;;;;;1.53;0.83;;;14.30;99.90;;;;;;5078525;28;20288;-82
2023/10/07 09:43:37;;;;;;;1.70;0.90;;;14.20;99.90;;;;;;5093387;28;20224;-80
2023/10/07 09:46:03;;;;;;;2.17;0.83;;;14.20;99.90;;;;;;5080457;28;20245;-82
2023/10/07 09:48:33;;;;;;;2.57;1.03;;;14.20;99.90;;;;;;5080155;28;20248;-80
2023/10/07 09:51:02;;;;;;;3.40;0.93;;;14.20;99.90;;;;;;5082479;28;20224;-80
2023/10/07 09:53:49;;;;;;;2.93;1.10;;;14.20;99.90;;;;;;5083125;28;20233;-81
2023/10/07 09:56:29;;;;;;;3.73;0.90;;;14.20;99.90;;;;;;5080686;28;20240;-81
2023/10/07 09:59:14;;;;;;;3.63;0.97;;;14.30;99.90;;;;;;5083850;28;20224;-80
2023/10/07 10:01:58;;;;;;;2.87;0.97;;;14.30;99.90;;;;;;5081181;28;20728;-80
2023/10/07 10:04:49;;;;;;;4.37;1.43;;;14.30;99.90;;;;;;5082586;28;20283;-80
2023/10/07 10:07:44;;;;;;;3.60;1.07;;;14.40;99.90;;;;;;5085817;28;20319;-80
2023/10/07 10:10:13;;;;;;;3.23;1.13;;;14.40;99.90;;;;;;5085175;28;20577;-80
2023/10/07 10:12:56;;;;;;;2.23;1.00;;;14.50;99.90;;;;;;5088141;28;20705;-83
2023/10/07 10:18:35;;;;;;;2.67;1.33;;;14.60;99.90;;;;;;5075630;28;20249;-80
2023/10/07 10:21:04;;;;;;;3.30;1.20;;;14.60;99.90;;;;;;5072239;28;20280;-79
2023/10/07 10:23:33;;;;;;;4.33;1.50;;;14.70;99.90;;;;;;5068923;28;20245;-78
2023/10/07 10:26:14;;;;;;;1.73;0.80;;;14.70;99.90;;;;;;5071897;28;20273;-78
2023/10/07 10:28:41;;;;;;;1.93;0.90;;;14.70;99.90;;;;;;5069166;28;20260;-79
2023/10/07 10:31:19;;;;;;;2.90;1.00;;;14.70;99.90;;;;;;5069590;28;20274;-79
2023/10/07 10:33:49;;;;;;;2.20;0.90;;;14.70;99.90;;;;;;5085343;28;20269;-79
2023/10/07 10:36:18;;;;;;;3.23;1.10;;;14.70;99.90;;;;;;5069930;28;20230;-78
2023/10/07 10:38:46;;;;;;;2.70;1.30;;;14.70;99.90;;;;;;5070916;28;20231;-79
2023/10/07 10:41:15;;;;;;;2.97;1.20;;;14.70;99.90;;;;;;5069480;28;20637;-78
2023/10/07 10:43:42;;;;;;;2.20;1.33;;;14.70;99.90;;;;;;5066725;28;20265;-79
2023/10/07 10:46:09;;;;;;;2.07;0.80;;;14.70;99.90;;;;;;5069117;28;20264;-77
2023/10/07 10:48:37;;;;;;;2.00;1.20;;;14.80;99.90;;;;;;5086423;28;20239;-79
2023/10/07 10:51:05;;;;;;;2.67;1.63;;;14.80;99.90;;;;;;5070352;28;20223;-77
2023/10/07 10:53:33;;;;;;;2.97;1.63;;;14.80;99.90;;;;;;5070444;28;20227;-79
2023/10/07 10:56:00;;;;;;;2.30;1.40;;;14.80;99.90;;;;;;5069805;28;20753;-78
2023/10/07 10:58:29;;;;;;;0.50;0.50;;;14.90;99.90;;;;;;5086454;28;20858;-79
2023/10/07 11:00:56;;;;;;;1.40;0.50;;;14.90;99.90;;;;;;5071144;28;20233;-79
2023/10/07 11:03:23;;;;;;;1.00;0.60;;;14.90;99.90;;;;;;5082481;28;20788;-77
2023/10/07 11:05:51;;;;;;;1.17;0.63;;;14.90;99.90;;;;;;5084514;28;20223;-78
2023/10/07 11:08:22;;;;;;;1.07;0.60;;;14.90;99.90;;;;;;5068473;28;20787;-78
2023/10/07 11:10:53;;;;;;;2.07;0.90;;;14.90;99.90;;;;;;5069878;28;20235;-78
2023/10/07 11:13:20;;;;;;;1.03;0.60;;;14.90;99.90;;;;;;5083193;28;20304;-79
2023/10/07 11:16:04;;;;;;;1.93;0.57;;;14.90;99.90;;;;;;5102932;28;20372;-78
2023/10/07 11:18:33;;;;;;;1.20;0.77;;;14.90;99.90;;;;;;5086057;28;20233;-77
2023/10/07 11:21:02;;;;;;;1.77;1.10;;;14.90;99.90;;;;;;5087741;28;20231;-78
2023/10/07 11:23:29;;;;;;;1.63;0.83;;;14.90;99.90;;;;;;5087009;28;20257;-78
2023/10/07 11:25:56;;;;;;;1.30;0.80;;;14.90;99.90;;;;;;5088483;28;20218;-77
2023/10/07 11:28:23;;;;;;;1.53;1.00;;;14.90;99.90;;;;;;5086393;28;20264;-78
2023/10/07 11:30:51;;;;;;;1.50;1.10;;;14.90;99.90;;;;;;5088103;28;20219;-78
2023/10/07 11:33:20;;;;;;;2.07;0.90;;;14.90;99.90;;;;;;5086646;28;20235;-77
2023/10/07 11:35:58;;;;;;;0.70;0.70;;;14.90;99.90;;;;;;5088892;28;20334;-80
2023/10/07 11:38:26;;;;;;;2.13;1.80;;;14.90;99.90;;;;;;5083877;28;20400;-77
2023/10/07 11:40:55;;;;;;;5.57;5.07;;;14.90;99.90;;;;;;5089955;28;20365;-77
2023/10/07 11:43:22;;;;;;;2.43;2.17;;;14.90;99.90;;;;;;5079143;28;20589;-79
2023/10/07 11:45:50;;;;;;;4.83;4.37;;;14.90;99.90;;;;;;5086339;28;20226;-78
2023/10/07 11:48:19;;;;;;;1.83;1.50;;;14.90;99.90;;;;;;5087323;28;20278;-77
2023/10/07 11:50:47;;;;;;;1.43;1.23;;;14.90;99.90;;;;;;5087794;28;20227;-79
2023/10/07 11:53:15;;;;;;;5.70;3.40;;;14.80;99.90;;;;;;5088666;28;20232;-79
2023/10/07 11:55:42;;;;;;;0.77;0.67;;;14.80;99.90;;;;;;5087734;28;20221;-80
2023/10/07 11:58:09;;;;;;;8.03;6.60;;;14.70;99.90;;;;;;5090536;28;20267;-78
2023/10/07 12:00:36;;;;;;;1.23;0.93;;;14.60;99.90;;;;;;5091140;28;20222;-77
2023/10/07 12:03:07;;;;;;;0.80;0.50;;;14.60;99.90;;;;;;5084466;28;20300;-77
2023/10/07 12:05:39;;;;;;;0.50;0.50;;;14.60;99.90;;;;;;5078830;28;20236;-80
2023/10/07 12:08:11;;;;;;;1.20;0.50;;;14.50;99.90;;;;;;5106529;28;20236;-77
2023/10/07 12:10:39;;;;;;;0.50;0.50;;;14.50;99.90;;;;;;5113345;28;20760;-78
2023/10/07 12:13:07;;;;;;;0.73;0.50;;;14.50;99.90;;;;;;5112290;28;20899;-79
2023/10/07 12:15:33;;;;;;;1.27;0.57;;;14.50;99.90;;;;;;5095235;28;20226;-79
2023/10/07 12:18:02;;;;;;;0.87;0.50;;;14.50;99.90;;;;;;5094010;28;20241;-77
2023/10/07 12:20:28;;;;;;;1.00;0.60;;;14.50;99.90;;;;;;5110706;28;20227;-79
2023/10/07 12:22:56;;;;;;;1.50;0.80;;;14.50;99.90;;;;;;5098840;28;20301;-79
2023/10/07 12:25:26;;;;;;;0.43;0.43;;;14.50;99.90;;;;;;5092830;28;20229;-79
2023/10/07 12:27:53;;;;;;;0.73;0.50;;;14.50;99.90;;;;;;5092830;28;20237;-78
2023/10/07 12:30:21;;;;;;;1.23;0.90;;;14.50;99.90;;;;;;5093826;28;20644;-79
2023/10/07 12:32:49;;;;;;;1.17;0.57;;;14.50;99.90;;;;;;5092711;28;20230;-78
2023/10/07 12:35:17;;;;;;;2.17;1.20;;;14.50;99.90;;;;;;5092626;28;20230;-79
2023/10/07 12:37:47;;;;;;;1.60;0.67;;;14.50;99.90;;;;;;5094632;28;20606;-80
2023/10/07 12:40:17;;;;;;;1.10;1.00;;;14.60;99.90;;;;;;5092046;28;20224;-78
2023/10/07 12:42:46;;;;;;;1.80;0.90;;;14.60;99.90;;;;;;5094395;28;20217;-79
2023/10/07 12:45:14;;;;;;;1.07;0.70;;;14.60;99.90;;;;;;5092310;28;20293;-80
2023/10/07 12:47:42;;;;;;;1.57;0.60;;;14.60;99.90;;;;;;5091777;28;20304;-80
2023/10/07 12:50:20;;;;;;;0.80;0.57;;;14.60;99.90;;;;;;5091864;28;20695;-81
2023/10/07 12:52:48;;;;;;;0.93;0.80;;;14.60;99.90;;;;;;5092523;28;20225;-80
2023/10/07 12:55:19;;;;;;;0.80;0.70;;;14.60;99.90;;;;;;5089422;28;20228;-78
2023/10/07 12:57:50;;;;;;;1.40;1.00;;;14.60;99.90;;;;;;5079398;28;20275;-79
2023/10/07 13:00:22;;;;;;;1.87;1.00;;;14.60;99.90;;;;;;5080964;28;20321;-80
2023/10/07 13:02:49;;;;;;;1.23;1.13;;;14.50;99.90;;;;;;5074943;28;20301;-79
2023/10/07 13:05:19;;;;;;;1.30;0.80;;;14.50;99.90;;;;;;5097390;28;20269;-77
2023/10/07 13:07:48;;;;;;;1.50;0.93;;;14.50;99.90;;;;;;5082775;28;20478;-79
2023/10/07 13:10:17;;;;;;;0.73;0.73;;;14.40;99.90;;;;;;5082001;28;20262;-77
2023/10/07 13:12:44;;;;;;;1.30;0.67;;;14.40;99.90;;;;;;5080768;28;20228;-79
2023/10/07 13:15:18;;;;;;;3.43;0.70;;;14.30;99.90;;;;;;5081549;28;20673;-77
2023/10/07 13:17:46;;;;;;;0.40;0.40;;;14.30;99.90;;;;;;5084157;28;20746;-78
2023/10/07 13:20:13;;;;;;;2.03;0.97;;;14.20;99.90;;;;;;5081715;28;20763;-77
2023/10/07 13:22:40;;;;;;;1.57;1.10;;;14.10;99.90;;;;;;5084749;28;20342;-77